createdAt,value
2023-09-23T00:00:25.090Z,74.89
2023-09-23T00:02:51.791Z,76.67
2023-09-23T00:05:18.865Z,82.02
2023-09-23T00:07:46.125Z,83.65
2023-09-23T00:10:13.009Z,85.93
2023-09-23T00:12:44.318Z,88.17
2023-09-23T00:15:14.254Z,88.69
2023-09-23T00:17:42.398Z,91.47
2023-09-23T00:20:15.928Z,92.64
2023-09-23T00:22:49.156Z,94.19
2023-09-23T00:25:20.256Z,94.79
2023-09-23T00:27:47.242Z,95.11
2023-09-23T00:30:14.680Z,95.25
2023-09-23T00:32:43.293Z,96.90
2023-09-23T00:35:13.347Z,95.09
2023-09-23T00:37:45.059Z,93.77
2023-09-23T00:40:19.213Z,93.25
2023-09-23T00:42:49.302Z,94.23
2023-09-23T00:45:17.807Z,94.85
2023-09-23T00:47:47.013Z,95.33
2023-09-23T00:50:20.364Z,96.17
2023-09-23T00:52:52.573Z,96.21
2023-09-23T00:55:25.590Z,97.39
2023-09-23T00:58:00.854Z,97.60
2023-09-23T01:00:30.529Z,96.54
2023-09-23T01:02:57.756Z,96.81
2023-09-23T01:05:28.770Z,97.05
2023-09-23T01:08:05.956Z,97.46
2023-09-23T01:10:33.125Z,96.90
2023-09-23T01:13:01.050Z,97.26
2023-09-23T01:15:30.031Z,96.95
2023-09-23T01:17:58.269Z,97.32
2023-09-23T01:20:26.942Z,97.16
2023-09-23T01:22:59.216Z,97.99
2023-09-23T01:25:26.795Z,97.58
2023-09-23T01:27:53.980Z,98.52
2023-09-23T01:30:22.911Z,98.32
2023-09-23T01:32:51.784Z,98.16
2023-09-23T01:35:19.395Z,97.70
2023-09-23T01:37:46.870Z,96.97
2023-09-23T01:40:20.362Z,96.59
2023-09-23T01:42:50.622Z,97.39
2023-09-23T01:45:20.616Z,97.17
2023-09-23T01:47:47.947Z,96.98
2023-09-23T01:50:15.113Z,97.39
2023-09-23T01:52:42.281Z,97.29
2023-09-23T01:55:11.958Z,97.23
2023-09-23T01:57:39.345Z,96.93
2023-09-23T02:00:16.313Z,97.34
2023-09-23T02:02:43.473Z,98.05
2023-09-23T02:05:10.335Z,97.91
2023-09-23T02:07:37.145Z,97.92
2023-09-23T02:10:03.869Z,98.39
2023-09-23T02:12:30.587Z,98.59
2023-09-23T02:14:57.536Z,98.88
2023-09-23T02:17:24.341Z,100.00
2023-09-23T02:19:53.408Z,100.00
2023-09-23T02:22:20.418Z,100.00
2023-09-23T02:24:47.948Z,100.00
2023-09-23T02:27:15.363Z,100.00
2023-09-23T02:29:42.350Z,100.00
2023-09-23T02:32:09.205Z,100.00
2023-09-23T02:34:37.910Z,100.00
2023-09-23T02:37:05.830Z,100.00
2023-09-23T02:39:32.803Z,100.00
2023-09-23T02:42:01.193Z,100.00
2023-09-23T02:44:31.236Z,100.00
2023-09-23T02:46:58.183Z,100.00
2023-09-23T02:49:25.018Z,100.00
2023-09-23T02:51:52.098Z,100.00
2023-09-23T02:54:18.839Z,100.00
2023-09-23T02:56:49.203Z,100.00
2023-09-23T02:59:17.132Z,100.00
2023-09-23T03:01:52.830Z,100.00
2023-09-23T03:04:24.825Z,100.00
2023-09-23T03:07:00.987Z,100.00
2023-09-23T03:09:33.419Z,99.75
2023-09-23T03:12:02.267Z,100.00
2023-09-23T03:14:44.504Z,99.60
2023-09-23T03:17:14.069Z,100.00
2023-09-23T03:19:40.869Z,99.47
2023-09-23T03:22:09.202Z,100.00
2023-09-23T03:24:36.273Z,100.00
2023-09-23T03:27:03.107Z,100.00
2023-09-23T03:29:29.827Z,100.00
2023-09-23T03:31:57.485Z,100.00
2023-09-23T03:34:24.780Z,99.90
2023-09-23T03:36:55.035Z,100.00
2023-09-23T03:39:23.223Z,100.00
2023-09-23T03:41:50.006Z,99.91
2023-09-23T03:44:17.354Z,99.54
2023-09-23T03:46:46.811Z,100.00
2023-09-23T03:49:14.085Z,99.13
2023-09-23T03:51:41.431Z,99.86
2023-09-23T03:54:08.230Z,99.59
2023-09-23T03:56:35.708Z,99.49
2023-09-23T03:59:06.931Z,100.00
2023-09-23T04:01:39.882Z,99.61
2023-09-23T04:04:08.532Z,99.72
2023-09-23T04:06:35.368Z,99.48
2023-09-23T04:09:02.015Z,99.79
2023-09-23T04:11:29.082Z,99.56
2023-09-23T04:13:56.330Z,99.48
2023-09-23T04:16:23.832Z,99.46
2023-09-23T04:18:53.125Z,99.60
2023-09-23T04:21:23.845Z,100.00
2023-09-23T04:23:50.558Z,100.00
2023-09-23T04:26:17.480Z,100.00
2023-09-23T04:28:45.590Z,99.93
2023-09-23T04:31:13.504Z,99.93
2023-09-23T04:33:40.961Z,99.32
2023-09-23T04:36:11.904Z,98.68
2023-09-23T04:38:38.629Z,98.82
2023-09-23T04:41:06.759Z,98.30
2023-09-23T04:43:33.588Z,98.60
2023-09-23T04:46:00.301Z,98.07
2023-09-23T04:48:27.656Z,97.87
2023-09-23T04:50:57.464Z,97.90
2023-09-23T04:53:24.457Z,97.62
2023-09-23T04:55:51.701Z,97.64
2023-09-23T04:58:18.462Z,97.50
2023-09-23T05:00:45.170Z,97.26
2023-09-23T05:03:12.530Z,97.38
2023-09-23T05:05:39.559Z,97.20
2023-09-23T05:08:11.146Z,97.39
2023-09-23T05:10:40.785Z,98.30
2023-09-23T05:13:09.357Z,98.42
2023-09-23T05:15:35.996Z,98.53
2023-09-23T05:18:02.853Z,98.28
2023-09-23T05:20:30.171Z,98.15
2023-09-23T05:22:57.081Z,98.30
2023-09-23T05:25:25.921Z,97.88
2023-09-23T05:27:56.789Z,97.98
2023-09-23T05:30:23.755Z,98.06
2023-09-23T05:32:50.565Z,97.88
2023-09-23T05:35:17.426Z,98.17
2023-09-23T05:37:45.329Z,98.13
2023-09-23T05:40:24.930Z,98.62
2023-09-23T05:42:52.449Z,98.67
2023-09-23T05:45:19.931Z,98.65
2023-09-23T05:47:46.878Z,99.53
2023-09-23T05:50:17.451Z,99.81
2023-09-23T05:52:47.020Z,100.00
2023-09-23T05:55:14.969Z,99.79
2023-09-23T05:57:42.214Z,99.25
2023-09-23T06:00:11.790Z,99.25
2023-09-23T06:02:42.378Z,98.86
2023-09-23T06:05:09.632Z,99.58
2023-09-23T06:07:36.279Z,99.55
2023-09-23T06:10:05.048Z,99.43
2023-09-23T06:12:33.567Z,99.39
2023-09-23T06:15:01.301Z,99.57
2023-09-23T06:17:29.679Z,99.05
2023-09-23T06:20:01.025Z,99.57
2023-09-23T06:22:28.896Z,99.54
2023-09-23T06:24:56.568Z,100.00
2023-09-23T06:27:23.300Z,100.00
2023-09-23T06:29:49.926Z,99.51
2023-09-23T06:32:16.534Z,98.88
2023-09-23T06:34:43.208Z,99.21
2023-09-23T06:37:09.897Z,99.23
2023-09-23T06:39:36.511Z,99.25
2023-09-23T06:42:03.319Z,99.33
2023-09-23T06:44:30.048Z,99.23
2023-09-23T06:46:56.792Z,99.39
2023-09-23T06:49:23.687Z,99.27
2023-09-23T06:51:50.385Z,98.79
2023-09-23T06:54:17.118Z,98.51
2023-09-23T06:56:43.845Z,98.82
2023-09-23T06:59:10.540Z,99.16
2023-09-23T07:01:37.913Z,99.38
2023-09-23T07:04:05.950Z,99.02
2023-09-23T07:06:32.789Z,98.94
2023-09-23T07:08:59.441Z,99.00
2023-09-23T07:11:26.273Z,99.49
2023-09-23T07:13:53.321Z,99.49
2023-09-23T07:16:20.153Z,98.93
2023-09-23T07:18:46.915Z,98.44
2023-09-23T07:21:13.709Z,98.09
2023-09-23T07:23:40.510Z,98.02
2023-09-23T07:26:07.447Z,97.60
2023-09-23T07:28:34.420Z,97.13
2023-09-23T07:31:01.707Z,97.50
2023-09-23T07:33:28.582Z,97.27
2023-09-23T07:35:55.221Z,97.14
2023-09-23T07:38:22.401Z,96.42
2023-09-23T07:40:50.090Z,97.36
2023-09-23T07:43:16.798Z,97.36
2023-09-23T07:45:43.493Z,97.29
2023-09-23T07:48:10.456Z,96.75
2023-09-23T07:50:37.328Z,96.98
2023-09-23T07:53:04.256Z,97.77
2023-09-23T07:55:31.547Z,97.45
2023-09-23T07:57:58.275Z,96.73
2023-09-23T08:00:28.063Z,96.90
2023-09-23T08:02:55.549Z,95.57
2023-09-23T08:05:25.838Z,96.28
2023-09-23T08:07:52.935Z,96.35
2023-09-23T08:10:19.845Z,96.32
2023-09-23T08:12:46.548Z,95.71
2023-09-23T08:15:13.719Z,96.17
2023-09-23T08:17:40.981Z,96.50
2023-09-23T08:20:30.875Z,95.78
2023-09-23T08:22:59.424Z,95.80
2023-09-23T08:25:26.540Z,96.17
2023-09-23T08:27:55.010Z,96.43
2023-09-23T08:30:22.574Z,96.56
2023-09-23T08:32:49.672Z,96.90
2023-09-23T08:35:16.712Z,96.59
2023-09-23T08:37:47.161Z,96.73
2023-09-23T08:40:14.566Z,97.49
2023-09-23T08:42:41.184Z,98.00
2023-09-23T08:45:11.983Z,98.33
2023-09-23T08:47:39.457Z,98.82
2023-09-23T08:50:10.175Z,99.46
2023-09-23T08:52:37.254Z,99.38
2023-09-23T08:55:08.782Z,99.19
2023-09-23T08:57:35.563Z,99.46
2023-09-23T09:00:03.216Z,98.60
2023-09-23T09:02:30.635Z,99.49
2023-09-23T09:04:58.723Z,100.00
2023-09-23T09:07:39.444Z,99.16
2023-09-23T09:10:07.192Z,98.57
2023-09-23T09:12:35.557Z,98.34
2023-09-23T09:15:02.221Z,98.80
2023-09-23T09:17:28.943Z,99.28
2023-09-23T09:19:55.724Z,98.72
2023-09-23T09:22:22.524Z,98.76
2023-09-23T09:24:49.239Z,98.85
2023-09-23T09:27:17.143Z,98.90
2023-09-23T09:29:44.880Z,98.86
2023-09-23T09:32:12.306Z,97.55
2023-09-23T09:34:48.587Z,97.55
2023-09-23T09:37:16.218Z,97.75
2023-09-23T09:39:52.889Z,97.11
2023-09-23T09:42:31.903Z,97.92
2023-09-23T09:44:59.120Z,97.49
2023-09-23T09:47:28.547Z,97.48
2023-09-23T09:49:56.155Z,97.04
2023-09-23T09:52:24.488Z,96.28
2023-09-23T09:54:56.971Z,96.98
2023-09-23T09:57:25.020Z,97.44
2023-09-23T09:59:52.913Z,97.82
2023-09-23T10:02:20.122Z,97.62
2023-09-23T10:04:48.906Z,97.48
2023-09-23T10:07:15.663Z,97.57
2023-09-23T10:09:55.097Z,97.99
2023-09-23T10:12:26.397Z,98.93
2023-09-23T10:14:54.951Z,97.40
2023-09-23T10:17:36.577Z,97.49
2023-09-23T10:20:09.845Z,96.67
2023-09-23T10:22:36.590Z,97.05
2023-09-23T10:25:08.080Z,98.67
2023-09-23T10:27:37.961Z,98.55
2023-09-23T10:30:05.772Z,97.90
2023-09-23T10:32:32.784Z,97.81
2023-09-23T10:35:00.260Z,97.99
2023-09-23T10:37:27.814Z,97.60
2023-09-23T10:39:54.474Z,98.27
2023-09-23T10:42:21.138Z,97.92
2023-09-23T10:44:49.123Z,97.57
2023-09-23T10:47:15.848Z,97.09
2023-09-23T10:49:42.545Z,96.77
2023-09-23T10:52:09.303Z,96.95
2023-09-23T10:54:37.770Z,97.34
2023-09-23T10:57:04.426Z,98.01
2023-09-23T10:59:31.731Z,98.39
2023-09-23T11:01:58.714Z,98.31
2023-09-23T11:04:25.502Z,98.64
2023-09-23T11:06:52.720Z,98.42
2023-09-23T11:09:22.348Z,97.73
2023-09-23T11:11:49.090Z,97.82
2023-09-23T11:14:15.846Z,97.84
2023-09-23T11:16:47.270Z,98.25
2023-09-23T11:19:13.979Z,98.74
2023-09-23T11:21:47.872Z,99.12
2023-09-23T11:24:14.791Z,99.02
2023-09-23T11:26:42.246Z,99.12
2023-09-23T11:29:09.515Z,98.89
2023-09-23T11:31:36.249Z,98.86
2023-09-23T11:34:03.327Z,98.74
2023-09-23T11:36:30.006Z,100.00
2023-09-23T11:38:56.622Z,99.72
2023-09-23T11:41:23.331Z,99.26
2023-09-23T11:43:51.547Z,98.83
2023-09-23T11:46:23.525Z,98.27
2023-09-23T11:48:50.385Z,98.83
2023-09-23T11:51:20.133Z,99.13
2023-09-23T11:53:47.027Z,99.63
2023-09-23T11:56:13.902Z,98.39
2023-09-23T11:58:44.696Z,98.18
2023-09-23T12:01:18.872Z,97.80
2023-09-23T12:03:45.692Z,98.55
2023-09-23T12:06:12.635Z,98.17
2023-09-23T12:08:39.458Z,97.91
2023-09-23T12:11:06.274Z,97.49
2023-09-23T12:13:33.656Z,98.86
2023-09-23T12:16:00.317Z,98.42
2023-09-23T12:18:27.321Z,98.80
2023-09-23T12:20:54.850Z,99.03
2023-09-23T12:23:21.894Z,98.42
2023-09-23T12:25:48.557Z,98.20
2023-09-23T12:28:15.232Z,98.39
2023-09-23T12:30:42.013Z,99.28
2023-09-23T12:33:10.079Z,99.87
2023-09-23T12:35:37.908Z,98.06
2023-09-23T12:38:04.859Z,98.23
2023-09-23T12:40:33.314Z,98.04
2023-09-23T12:43:00.027Z,97.06
2023-09-23T12:45:26.821Z,96.60
2023-09-23T12:47:58.027Z,95.49
2023-09-23T12:50:26.612Z,95.24
2023-09-23T12:52:54.683Z,94.95
2023-09-23T12:55:21.457Z,95.52
2023-09-23T12:57:49.616Z,95.57
2023-09-23T13:00:16.869Z,95.44
2023-09-23T13:02:43.813Z,94.96
2023-09-23T13:05:12.015Z,94.84
2023-09-23T13:07:39.033Z,94.78
2023-09-23T13:10:06.125Z,95.24
2023-09-23T13:12:32.960Z,95.63
2023-09-23T13:14:59.544Z,95.68
2023-09-23T13:17:27.082Z,95.69
2023-09-23T13:19:54.010Z,94.54
2023-09-23T13:22:20.693Z,95.94
2023-09-23T13:24:47.417Z,95.32
2023-09-23T13:27:14.047Z,95.34
2023-09-23T13:29:40.822Z,95.52
2023-09-23T13:32:07.535Z,95.49
2023-09-23T13:34:34.213Z,95.59
2023-09-23T13:37:00.877Z,95.30
2023-09-23T13:39:27.539Z,96.21
2023-09-23T13:41:55.165Z,96.54
2023-09-23T13:44:25.486Z,96.67
2023-09-23T13:46:53.284Z,96.15
2023-09-23T13:49:20.171Z,96.21
2023-09-23T13:51:46.972Z,96.35
2023-09-23T13:54:13.656Z,96.52
2023-09-23T13:56:40.614Z,96.38
2023-09-23T13:59:07.390Z,96.52
2023-09-23T14:01:34.281Z,96.48
2023-09-23T14:04:01.157Z,95.92
2023-09-23T14:06:27.883Z,96.59
2023-09-23T14:08:54.700Z,98.04
2023-09-23T14:11:21.504Z,97.92
2023-09-23T14:13:48.574Z,97.48
2023-09-23T14:16:15.330Z,97.67
2023-09-23T14:18:42.055Z,97.53
2023-09-23T14:21:08.809Z,97.12
2023-09-23T14:23:36.094Z,97.49
2023-09-23T14:26:03.215Z,97.61
2023-09-23T14:28:29.970Z,97.30
2023-09-23T14:30:57.810Z,97.31
2023-09-23T14:33:24.742Z,98.38
2023-09-23T14:35:51.459Z,98.61
2023-09-23T14:38:18.161Z,98.52
2023-09-23T14:40:44.933Z,98.50
2023-09-23T14:43:11.829Z,98.96
2023-09-23T14:45:38.713Z,98.69
2023-09-23T14:48:05.779Z,98.90
2023-09-23T14:50:32.961Z,98.51
2023-09-23T14:52:59.688Z,98.48
2023-09-23T14:55:26.467Z,99.18
2023-09-23T14:57:55.406Z,98.94
2023-09-23T15:00:23.140Z,99.82
2023-09-23T15:02:50.051Z,99.19
2023-09-23T15:05:17.292Z,99.01
2023-09-23T15:07:44.099Z,98.21
2023-09-23T15:10:12.257Z,98.53
2023-09-23T15:12:39.064Z,98.41
2023-09-23T15:15:06.298Z,98.08
2023-09-23T15:17:33.164Z,98.27
2023-09-23T15:19:59.913Z,98.53
2023-09-23T15:22:26.587Z,98.06
2023-09-23T15:24:53.326Z,99.63
2023-09-23T15:27:20.001Z,99.63
2023-09-23T15:29:48.980Z,99.76
2023-09-23T15:32:15.788Z,99.76
2023-09-23T15:34:43.059Z,99.95
2023-09-23T15:37:09.732Z,100.00
2023-09-23T15:39:37.005Z,100.00
2023-09-23T15:42:04.402Z,100.00
2023-09-23T15:44:31.197Z,100.00
2023-09-23T15:46:58.805Z,100.00
2023-09-23T15:49:28.122Z,100.00
2023-09-23T15:51:54.949Z,99.70
2023-09-23T15:54:21.622Z,99.73
2023-09-23T15:56:49.279Z,99.84
2023-09-23T15:59:16.158Z,100.00
2023-09-23T16:01:42.848Z,100.00
2023-09-23T16:04:10.040Z,100.00
2023-09-23T16:06:37.003Z,100.00
2023-09-23T16:09:05.216Z,100.00
2023-09-23T16:11:31.956Z,100.00
2023-09-23T16:13:58.751Z,100.00
2023-09-23T16:16:25.536Z,100.00
2023-09-23T16:18:52.400Z,99.74
2023-09-23T16:21:19.171Z,99.47
2023-09-23T16:23:47.156Z,99.47
2023-09-23T16:26:13.961Z,99.41
2023-09-23T16:28:41.083Z,99.22
2023-09-23T16:31:07.864Z,99.12
2023-09-23T16:33:34.595Z,99.67
2023-09-23T16:36:01.367Z,99.80
2023-09-23T16:38:28.100Z,100.00
2023-09-23T16:40:54.782Z,99.63
2023-09-23T16:43:21.478Z,99.43
2023-09-23T16:45:50.925Z,100.00
2023-09-23T16:48:18.094Z,99.95
2023-09-23T16:50:44.863Z,99.86
2023-09-23T16:53:12.113Z,100.00
2023-09-23T16:55:38.835Z,99.88
2023-09-23T16:58:05.510Z,99.53
2023-09-23T17:00:32.640Z,99.79
2023-09-23T17:03:00.094Z,99.52
2023-09-23T17:05:26.976Z,99.76
2023-09-23T17:07:53.753Z,99.59
2023-09-23T17:10:20.459Z,99.38
2023-09-23T17:12:47.149Z,98.81
2023-09-23T17:15:13.844Z,99.60
2023-09-23T17:17:40.796Z,99.33
2023-09-23T17:20:08.339Z,100.00
2023-09-23T17:22:35.042Z,99.93
2023-09-23T17:25:01.839Z,99.51
2023-09-23T17:27:28.582Z,99.71
2023-09-23T17:29:55.368Z,99.30
2023-09-23T17:32:22.004Z,99.26
2023-09-23T17:34:48.670Z,99.37
2023-09-23T17:37:15.394Z,100.00
2023-09-23T17:39:42.129Z,100.00
2023-09-23T17:42:08.898Z,100.00
2023-09-23T17:44:37.989Z,100.00
2023-09-23T17:47:05.482Z,100.00
2023-09-23T17:49:32.184Z,100.00
2023-09-23T17:51:58.809Z,100.00
2023-09-23T17:54:25.502Z,100.00
2023-09-23T17:56:52.382Z,100.00
2023-09-23T17:59:19.037Z,100.00
2023-09-23T18:01:45.853Z,100.00
2023-09-23T18:04:12.691Z,100.00
2023-09-23T18:06:39.577Z,100.00
2023-09-23T18:09:06.281Z,100.00
2023-09-23T18:11:33.042Z,100.00
2023-09-23T18:13:59.741Z,100.00
2023-09-23T18:16:26.454Z,100.00
2023-09-23T18:18:53.114Z,100.00
2023-09-23T18:21:20.357Z,100.00
2023-09-23T18:23:47.759Z,100.00
2023-09-23T18:26:15.311Z,100.00
2023-09-23T18:28:42.444Z,100.00
2023-09-23T18:31:09.145Z,100.00
2023-09-23T18:33:36.039Z,100.00
2023-09-23T18:36:02.876Z,100.00
2023-09-23T18:38:29.767Z,100.00
2023-09-23T18:40:56.827Z,99.78
2023-09-23T18:43:23.633Z,99.86
2023-09-23T18:45:50.680Z,99.81
2023-09-23T18:48:25.928Z,100.00
2023-09-23T18:50:53.858Z,100.00
2023-09-23T18:53:22.179Z,100.00
2023-09-23T18:55:49.139Z,99.89
2023-09-23T18:58:15.925Z,100.00
2023-09-23T19:00:44.240Z,100.00
2023-09-23T19:03:11.161Z,100.00
2023-09-23T19:05:39.782Z,100.00
2023-09-23T19:08:07.330Z,100.00
2023-09-23T19:10:34.207Z,100.00
2023-09-23T19:13:01.578Z,100.00
2023-09-23T19:15:28.298Z,100.00
2023-09-23T19:17:55.314Z,100.00
2023-09-23T19:20:22.069Z,100.00
2023-09-23T19:22:48.930Z,100.00
2023-09-23T19:25:16.048Z,100.00
2023-09-23T19:27:44.167Z,100.00
2023-09-23T19:30:14.294Z,100.00
2023-09-23T19:32:41.577Z,100.00
2023-09-23T19:35:09.231Z,100.00
2023-09-23T19:37:37.410Z,100.00
2023-09-23T19:40:06.341Z,100.00
2023-09-23T19:42:34.014Z,100.00
2023-09-23T19:45:03.882Z,100.00
2023-09-23T19:47:32.347Z,100.00
2023-09-23T19:50:01.121Z,100.00
2023-09-23T19:52:35.346Z,100.00
2023-09-23T19:55:02.414Z,100.00
2023-09-23T19:57:29.151Z,100.00
2023-09-23T19:59:56.727Z,100.00
2023-09-23T20:02:24.773Z,100.00
2023-09-23T20:04:51.674Z,100.00
2023-09-23T20:07:18.442Z,99.89
2023-09-23T20:09:45.161Z,100.00
2023-09-23T20:12:12.316Z,100.00
2023-09-23T20:14:39.169Z,100.00
2023-09-23T20:17:08.037Z,100.00
2023-09-23T20:19:34.905Z,100.00
2023-09-23T20:22:02.152Z,100.00
2023-09-23T20:24:28.898Z,100.00
2023-09-23T20:26:55.714Z,100.00
2023-09-23T20:29:22.943Z,100.00
2023-09-23T20:31:50.146Z,100.00
2023-09-23T20:34:18.001Z,100.00
2023-09-23T20:36:45.742Z,100.00
2023-09-23T20:39:12.900Z,100.00
2023-09-23T20:41:39.755Z,100.00
2023-09-23T20:44:06.690Z,100.00
2023-09-23T20:46:33.835Z,100.00
2023-09-23T20:49:01.787Z,100.00
2023-09-23T20:51:29.702Z,100.00
2023-09-23T20:53:57.041Z,100.00
2023-09-23T20:56:24.113Z,100.00
2023-09-23T20:58:51.086Z,100.00
2023-09-23T21:01:17.982Z,100.00
2023-09-23T21:03:45.034Z,100.00
2023-09-23T21:06:11.881Z,100.00
2023-09-23T21:08:38.704Z,100.00
2023-09-23T21:11:05.493Z,100.00
2023-09-23T21:13:32.246Z,100.00
2023-09-23T21:16:06.372Z,100.00
2023-09-23T21:18:33.301Z,100.00
2023-09-23T21:21:00.165Z,100.00
2023-09-23T21:23:27.128Z,100.00
2023-09-23T21:25:54.222Z,100.00
2023-09-23T21:28:20.890Z,100.00
2023-09-23T21:30:47.628Z,99.72
2023-09-23T21:33:14.582Z,98.60
2023-09-23T21:35:42.377Z,98.67
2023-09-23T21:38:09.139Z,98.02
2023-09-23T21:40:40.957Z,98.08
2023-09-23T21:43:08.928Z,98.05
2023-09-23T21:45:35.624Z,97.39
2023-09-23T21:48:02.765Z,98.07
2023-09-23T21:50:30.082Z,97.88
2023-09-23T21:52:56.764Z,97.71
2023-09-23T21:55:23.415Z,96.48
2023-09-23T21:57:50.059Z,96.38
2023-09-23T22:00:35.285Z,96.19
2023-09-23T22:03:02.738Z,95.82
2023-09-23T22:05:31.472Z,95.52
2023-09-23T22:08:00.347Z,95.92
2023-09-23T22:10:28.184Z,95.73
2023-09-23T22:12:57.430Z,95.21
2023-09-23T22:15:26.874Z,95.57
2023-09-23T22:17:54.789Z,95.54
2023-09-23T22:20:26.041Z,95.12
2023-09-23T22:22:53.096Z,95.78
2023-09-23T22:25:21.938Z,95.36
2023-09-23T22:27:55.322Z,95.79
2023-09-23T22:30:27.138Z,96.38
2023-09-23T22:32:55.958Z,96.07
2023-09-23T22:35:29.146Z,95.70
2023-09-23T22:38:00.494Z,93.57
2023-09-23T22:40:27.890Z,95.19
2023-09-23T22:42:56.300Z,94.93
2023-09-23T22:45:36.145Z,95.57
2023-09-23T22:48:06.455Z,95.67
2023-09-23T22:50:33.506Z,96.06
2023-09-23T22:53:00.322Z,96.25
2023-09-23T22:55:27.343Z,96.17
2023-09-23T22:57:54.151Z,96.64
2023-09-23T23:00:27.055Z,96.27
2023-09-23T23:02:56.037Z,96.84
2023-09-23T23:05:23.335Z,96.83
2023-09-23T23:07:53.489Z,96.97
2023-09-23T23:10:20.567Z,96.90
2023-09-23T23:12:48.656Z,97.38
2023-09-23T23:15:17.551Z,97.08
2023-09-23T23:17:46.059Z,97.08
2023-09-23T23:20:24.406Z,97.12
2023-09-23T23:22:55.685Z,96.59
2023-09-23T23:25:25.020Z,96.90
2023-09-23T23:27:52.004Z,97.19
2023-09-23T23:30:19.661Z,96.86
2023-09-23T23:32:49.876Z,97.43
2023-09-23T23:35:28.372Z,97.87
2023-09-23T23:37:55.144Z,97.62
2023-09-23T23:40:22.954Z,97.69
2023-09-23T23:42:50.777Z,97.67
2023-09-23T23:45:21.576Z,97.97
2023-09-23T23:47:53.758Z,97.62
2023-09-23T23:50:21.793Z,98.18
2023-09-23T23:52:50.314Z,98.18
2023-09-23T23:55:17.826Z,98.06
2023-09-23T23:57:46.154Z,97.91
